sensor_id;sensor_type;location;lat;lon;timestamp;P1;durP1;ratioP1;P2;durP2;ratioP2
78614;SDS011;67937;52.488;20.952;2023-04-01T00:00:50;12.60;;;8.20;;
78614;SDS011;67937;52.488;20.952;2023-04-01T00:03:20;12.20;;;9.20;;
78614;SDS011;67937;52.488;20.952;2023-04-01T00:05:49;15.40;;;8.60;;
78614;SDS011;67937;52.488;20.952;2023-04-01T00:08:18;14.50;;;9.30;;
78614;SDS011;67937;52.488;20.952;2023-04-01T00:10:46;14.10;;;8.40;;
78614;SDS011;67937;52.488;20.952;2023-04-01T00:13:14;12.10;;;8.00;;
78614;SDS011;67937;52.488;20.952;2023-04-01T00:15:42;13.50;;;8.40;;
78614;SDS011;67937;52.488;20.952;2023-04-01T00:18:14;17.20;;;8.60;;
78614;SDS011;67937;52.488;20.952;2023-04-01T00:21:02;18.40;;;9.10;;
78614;SDS011;67937;52.488;20.952;2023-04-01T00:23:30;15.50;;;8.70;;
78614;SDS011;67937;52.488;20.952;2023-04-01T00:25:59;14.90;;;9.50;;
78614;SDS011;67937;52.488;20.952;2023-04-01T00:28:28;14.10;;;9.20;;
78614;SDS011;67937;52.488;20.952;2023-04-01T00:30:57;17.50;;;9.50;;
78614;SDS011;67937;52.488;20.952;2023-04-01T00:33:25;17.30;;;10.20;;
78614;SDS011;67937;52.488;20.952;2023-04-01T00:35:53;16.10;;;9.40;;
78614;SDS011;67937;52.488;20.952;2023-04-01T00:38:21;17.50;;;10.10;;
78614;SDS011;67937;52.488;20.952;2023-04-01T00:40:49;15.40;;;9.80;;
78614;SDS011;67937;52.488;20.952;2023-04-01T00:43:24;16.70;;;10.30;;
78614;SDS011;67937;52.488;20.952;2023-04-01T00:45:52;15.60;;;9.50;;
78614;SDS011;67937;52.488;20.952;2023-04-01T00:48:24;16.00;;;9.80;;
78614;SDS011;67937;52.488;20.952;2023-04-01T00:53:32;16.30;;;9.70;;
78614;SDS011;67937;52.488;20.952;2023-04-01T00:58:41;16.10;;;9.50;;
78614;SDS011;67937;52.488;20.952;2023-04-01T01:01:13;18.80;;;11.20;;
78614;SDS011;67937;52.488;20.952;2023-04-01T01:03:42;20.60;;;11.30;;
78614;SDS011;67937;52.488;20.952;2023-04-01T01:06:12;19.10;;;10.00;;
78614;SDS011;67937;52.488;20.952;2023-04-01T01:16:48;16.60;;;9.40;;
78614;SDS011;67937;52.488;20.952;2023-04-01T01:19:33;18.00;;;11.00;;
78614;SDS011;67937;52.488;20.952;2023-04-01T01:28:01;18.90;;;12.30;;
78614;SDS011;67937;52.488;20.952;2023-04-01T01:36:27;16.40;;;9.30;;
78614;SDS011;67937;52.488;20.952;2023-04-01T01:39:03;15.70;;;9.30;;
78614;SDS011;67937;52.488;20.952;2023-04-01T01:41:33;15.80;;;8.70;;
78614;SDS011;67937;52.488;20.952;2023-04-01T01:44:03;18.50;;;10.50;;
78614;SDS011;67937;52.488;20.952;2023-04-01T01:46:34;17.70;;;10.10;;
78614;SDS011;67937;52.488;20.952;2023-04-01T01:49:05;14.70;;;7.60;;
78614;SDS011;67937;52.488;20.952;2023-04-01T01:54:05;16.70;;;10.30;;
78614;SDS011;67937;52.488;20.952;2023-04-01T01:56:33;15.20;;;8.90;;
78614;SDS011;67937;52.488;20.952;2023-04-01T01:59:03;14.60;;;8.00;;
78614;SDS011;67937;52.488;20.952;2023-04-01T02:01:38;18.20;;;9.20;;
78614;SDS011;67937;52.488;20.952;2023-04-01T02:04:11;22.50;;;10.20;;
78614;SDS011;67937;52.488;20.952;2023-04-01T02:06:46;19.20;;;10.50;;
78614;SDS011;67937;52.488;20.952;2023-04-01T02:09:20;14.20;;;8.10;;
78614;SDS011;67937;52.488;20.952;2023-04-01T02:11:52;19.90;;;9.10;;
78614;SDS011;67937;52.488;20.952;2023-04-01T02:17:18;22.10;;;9.50;;
78614;SDS011;67937;52.488;20.952;2023-04-01T02:19:52;18.70;;;9.20;;
78614;SDS011;67937;52.488;20.952;2023-04-01T02:22:28;19.40;;;10.30;;
78614;SDS011;67937;52.488;20.952;2023-04-01T02:24:58;22.20;;;10.20;;
78614;SDS011;67937;52.488;20.952;2023-04-01T02:27:30;19.90;;;10.20;;
78614;SDS011;67937;52.488;20.952;2023-04-01T02:29:58;23.60;;;11.30;;
78614;SDS011;67937;52.488;20.952;2023-04-01T02:32:27;18.70;;;9.90;;
78614;SDS011;67937;52.488;20.952;2023-04-01T02:34:56;22.40;;;9.40;;
78614;SDS011;67937;52.488;20.952;2023-04-01T02:37:26;21.50;;;10.50;;
78614;SDS011;67937;52.488;20.952;2023-04-01T02:39:54;21.90;;;10.10;;
78614;SDS011;67937;52.488;20.952;2023-04-01T02:42:28;18.70;;;9.80;;
78614;SDS011;67937;52.488;20.952;2023-04-01T02:44:56;17.90;;;9.80;;
78614;SDS011;67937;52.488;20.952;2023-04-01T02:47:24;20.50;;;10.90;;
78614;SDS011;67937;52.488;20.952;2023-04-01T02:49:52;16.00;;;9.10;;
78614;SDS011;67937;52.488;20.952;2023-04-01T02:52:24;23.90;;;10.40;;
78614;SDS011;67937;52.488;20.952;2023-04-01T02:54:53;22.60;;;11.00;;
78614;SDS011;67937;52.488;20.952;2023-04-01T02:57:21;19.70;;;10.20;;
78614;SDS011;67937;52.488;20.952;2023-04-01T02:59:49;24.30;;;10.50;;
78614;SDS011;67937;52.488;20.952;2023-04-01T03:02:17;18.60;;;9.90;;
78614;SDS011;67937;52.488;20.952;2023-04-01T03:04:45;23.20;;;9.80;;
78614;SDS011;67937;52.488;20.952;2023-04-01T03:07:13;19.30;;;9.50;;
78614;SDS011;67937;52.488;20.952;2023-04-01T03:09:41;23.40;;;9.90;;
78614;SDS011;67937;52.488;20.952;2023-04-01T03:12:09;22.10;;;10.20;;
78614;SDS011;67937;52.488;20.952;2023-04-01T03:14:38;17.70;;;9.60;;
78614;SDS011;67937;52.488;20.952;2023-04-01T03:17:05;19.70;;;10.10;;
78614;SDS011;67937;52.488;20.952;2023-04-01T03:19:34;19.50;;;9.60;;
78614;SDS011;67937;52.488;20.952;2023-04-01T03:22:02;20.30;;;9.80;;
78614;SDS011;67937;52.488;20.952;2023-04-01T03:24:30;22.80;;;10.20;;
78614;SDS011;67937;52.488;20.952;2023-04-01T03:26:58;21.70;;;10.70;;
78614;SDS011;67937;52.488;20.952;2023-04-01T03:29:26;23.60;;;10.90;;
78614;SDS011;67937;52.488;20.952;2023-04-01T03:31:54;21.60;;;9.70;;
78614;SDS011;67937;52.488;20.952;2023-04-01T03:34:24;18.40;;;8.70;;
78614;SDS011;67937;52.488;20.952;2023-04-01T03:36:52;15.50;;;9.70;;
78614;SDS011;67937;52.488;20.952;2023-04-01T03:39:21;18.40;;;8.80;;
78614;SDS011;67937;52.488;20.952;2023-04-01T03:41:49;20.30;;;10.40;;
78614;SDS011;67937;52.488;20.952;2023-04-01T03:44:17;18.60;;;8.60;;
78614;SDS011;67937;52.488;20.952;2023-04-01T03:46:45;17.80;;;9.50;;
78614;SDS011;67937;52.488;20.952;2023-04-01T03:49:13;15.10;;;8.80;;
78614;SDS011;67937;52.488;20.952;2023-04-01T03:51:42;16.70;;;9.20;;
78614;SDS011;67937;52.488;20.952;2023-04-01T03:54:11;18.10;;;10.00;;
78614;SDS011;67937;52.488;20.952;2023-04-01T03:56:39;20.50;;;10.50;;
78614;SDS011;67937;52.488;20.952;2023-04-01T03:59:07;19.80;;;10.10;;
78614;SDS011;67937;52.488;20.952;2023-04-01T04:01:35;16.90;;;10.10;;
78614;SDS011;67937;52.488;20.952;2023-04-01T04:04:04;17.00;;;10.20;;
78614;SDS011;67937;52.488;20.952;2023-04-01T04:06:32;17.10;;;10.60;;
78614;SDS011;67937;52.488;20.952;2023-04-01T04:09:01;19.70;;;9.60;;
78614;SDS011;67937;52.488;20.952;2023-04-01T04:11:30;19.90;;;9.30;;
78614;SDS011;67937;52.488;20.952;2023-04-01T04:13:59;16.40;;;9.40;;
78614;SDS011;67937;52.488;20.952;2023-04-01T04:16:28;15.40;;;8.90;;
78614;SDS011;67937;52.488;20.952;2023-04-01T04:18:56;15.30;;;8.70;;
78614;SDS011;67937;52.488;20.952;2023-04-01T04:21:24;19.10;;;9.20;;
78614;SDS011;67937;52.488;20.952;2023-04-01T04:23:52;16.60;;;9.70;;
78614;SDS011;67937;52.488;20.952;2023-04-01T04:26:20;18.60;;;9.50;;
78614;SDS011;67937;52.488;20.952;2023-04-01T04:28:48;17.10;;;8.90;;
78614;SDS011;67937;52.488;20.952;2023-04-01T04:31:20;15.90;;;8.40;;
78614;SDS011;67937;52.488;20.952;2023-04-01T04:33:49;14.40;;;8.90;;
78614;SDS011;67937;52.488;20.952;2023-04-01T04:36:18;12.90;;;8.10;;
78614;SDS011;67937;52.488;20.952;2023-04-01T04:38:47;14.90;;;8.50;;
78614;SDS011;67937;52.488;20.952;2023-04-01T04:41:16;14.10;;;8.20;;
78614;SDS011;67937;52.488;20.952;2023-04-01T04:43:48;15.80;;;9.00;;
78614;SDS011;67937;52.488;20.952;2023-04-01T04:46:18;14.80;;;8.30;;
78614;SDS011;67937;52.488;20.952;2023-04-01T04:48:47;16.10;;;8.70;;
78614;SDS011;67937;52.488;20.952;2023-04-01T04:51:16;15.80;;;8.20;;
78614;SDS011;67937;52.488;20.952;2023-04-01T04:53:45;11.40;;;6.80;;
78614;SDS011;67937;52.488;20.952;2023-04-01T04:56:17;12.90;;;7.20;;
78614;SDS011;67937;52.488;20.952;2023-04-01T04:58:46;12.80;;;7.50;;
78614;SDS011;67937;52.488;20.952;2023-04-01T05:01:15;6.40;;;5.50;;
78614;SDS011;67937;52.488;20.952;2023-04-01T05:03:44;10.30;;;6.60;;
78614;SDS011;67937;52.488;20.952;2023-04-01T05:06:13;10.70;;;5.60;;
78614;SDS011;67937;52.488;20.952;2023-04-01T05:08:43;12.70;;;6.80;;
78614;SDS011;67937;52.488;20.952;2023-04-01T05:11:13;10.30;;;6.30;;
78614;SDS011;67937;52.488;20.952;2023-04-01T05:13:42;11.20;;;7.10;;
78614;SDS011;67937;52.488;20.952;2023-04-01T05:16:12;10.50;;;6.40;;
78614;SDS011;67937;52.488;20.952;2023-04-01T05:18:42;9.10;;;6.20;;
78614;SDS011;67937;52.488;20.952;2023-04-01T05:21:11;9.20;;;6.90;;
78614;SDS011;67937;52.488;20.952;2023-04-01T05:23:41;9.60;;;6.80;;
78614;SDS011;67937;52.488;20.952;2023-04-01T05:26:11;19.90;;;12.40;;
78614;SDS011;67937;52.488;20.952;2023-04-01T05:28:41;35.00;;;19.30;;
78614;SDS011;67937;52.488;20.952;2023-04-01T05:31:09;23.30;;;14.90;;
78614;SDS011;67937;52.488;20.952;2023-04-01T05:33:37;21.30;;;12.30;;
78614;SDS011;67937;52.488;20.952;2023-04-01T05:36:08;18.20;;;10.90;;
78614;SDS011;67937;52.488;20.952;2023-04-01T05:38:38;29.00;;;16.10;;
78614;SDS011;67937;52.488;20.952;2023-04-01T05:41:06;26.30;;;13.30;;
78614;SDS011;67937;52.488;20.952;2023-04-01T05:43:37;27.10;;;15.30;;
78614;SDS011;67937;52.488;20.952;2023-04-01T05:46:06;18.00;;;10.30;;
78614;SDS011;67937;52.488;20.952;2023-04-01T05:48:35;25.90;;;14.70;;
78614;SDS011;67937;52.488;20.952;2023-04-01T05:51:03;22.10;;;11.60;;
78614;SDS011;67937;52.488;20.952;2023-04-01T05:53:31;19.60;;;11.90;;
78614;SDS011;67937;52.488;20.952;2023-04-01T05:56:03;18.10;;;12.10;;
78614;SDS011;67937;52.488;20.952;2023-04-01T05:58:31;17.90;;;11.80;;
78614;SDS011;67937;52.488;20.952;2023-04-01T06:01:00;15.80;;;11.50;;
78614;SDS011;67937;52.488;20.952;2023-04-01T06:03:33;15.80;;;9.30;;
78614;SDS011;67937;52.488;20.952;2023-04-01T06:06:01;13.10;;;8.30;;
78614;SDS011;67937;52.488;20.952;2023-04-01T06:08:30;12.50;;;8.50;;
78614;SDS011;67937;52.488;20.952;2023-04-01T06:26:41;10.40;;;6.80;;
78614;SDS011;67937;52.488;20.952;2023-04-01T06:32:01;9.00;;;6.30;;
78614;SDS011;67937;52.488;20.952;2023-04-01T06:37:20;6.30;;;5.40;;
78614;SDS011;67937;52.488;20.952;2023-04-01T06:40:06;8.40;;;6.00;;
78614;SDS011;67937;52.488;20.952;2023-04-01T06:53:57;6.50;;;4.60;;
78614;SDS011;67937;52.488;20.952;2023-04-01T06:56:51;6.00;;;4.70;;
78614;SDS011;67937;52.488;20.952;2023-04-01T06:59:25;4.60;;;4.10;;
78614;SDS011;67937;52.488;20.952;2023-04-01T07:01:59;4.00;;;3.30;;
78614;SDS011;67937;52.488;20.952;2023-04-01T07:04:43;3.70;;;3.20;;
78614;SDS011;67937;52.488;20.952;2023-04-01T07:07:16;3.30;;;2.90;;
78614;SDS011;67937;52.488;20.952;2023-04-01T07:12:24;4.00;;;3.30;;
78614;SDS011;67937;52.488;20.952;2023-04-01T07:14:56;4.10;;;3.20;;
78614;SDS011;67937;52.488;20.952;2023-04-01T07:17:30;2.90;;;2.20;;
78614;SDS011;67937;52.488;20.952;2023-04-01T07:20:03;4.90;;;2.70;;
78614;SDS011;67937;52.488;20.952;2023-04-01T07:22:42;3.50;;;2.80;;
78614;SDS011;67937;52.488;20.952;2023-04-01T07:25:17;3.60;;;3.30;;
78614;SDS011;67937;52.488;20.952;2023-04-01T07:27:49;3.70;;;3.40;;
78614;SDS011;67937;52.488;20.952;2023-04-01T07:30:19;3.90;;;3.20;;
78614;SDS011;67937;52.488;20.952;2023-04-01T07:32:51;2.80;;;2.60;;
78614;SDS011;67937;52.488;20.952;2023-04-01T07:35:27;2.60;;;2.40;;
78614;SDS011;67937;52.488;20.952;2023-04-01T07:46:19;3.10;;;1.60;;
78614;SDS011;67937;52.488;20.952;2023-04-01T07:51:36;1.90;;;1.80;;
78614;SDS011;67937;52.488;20.952;2023-04-01T07:57:19;1.70;;;1.60;;
78614;SDS011;67937;52.488;20.952;2023-04-01T08:16:43;2.20;;;2.00;;
78614;SDS011;67937;52.488;20.952;2023-04-01T08:22:29;2.20;;;1.90;;
78614;SDS011;67937;52.488;20.952;2023-04-01T08:25:04;1.90;;;1.80;;
78614;SDS011;67937;52.488;20.952;2023-04-01T08:27:39;3.00;;;2.30;;
78614;SDS011;67937;52.488;20.952;2023-04-01T08:30:20;1.90;;;1.70;;
78614;SDS011;67937;52.488;20.952;2023-04-01T08:32:58;1.70;;;1.60;;
78614;SDS011;67937;52.488;20.952;2023-04-01T08:35:56;1.50;;;1.40;;
78614;SDS011;67937;52.488;20.952;2023-04-01T08:38:26;1.50;;;1.40;;
78614;SDS011;67937;52.488;20.952;2023-04-01T08:41:00;1.60;;;1.50;;
78614;SDS011;67937;52.488;20.952;2023-04-01T08:46:45;1.60;;;1.20;;
78614;SDS011;67937;52.488;20.952;2023-04-01T08:52:30;1.70;;;1.60;;
78614;SDS011;67937;52.488;20.952;2023-04-01T09:09:43;1.80;;;1.70;;
78614;SDS011;67937;52.488;20.952;2023-04-01T09:28:49;2.40;;;2.10;;
78614;SDS011;67937;52.488;20.952;2023-04-01T09:39:36;2.60;;;2.40;;
78614;SDS011;67937;52.488;20.952;2023-04-01T09:44:48;2.70;;;2.50;;
78614;SDS011;67937;52.488;20.952;2023-04-01T09:47:35;3.90;;;2.90;;
78614;SDS011;67937;52.488;20.952;2023-04-01T09:53:09;2.80;;;2.60;;
78614;SDS011;67937;52.488;20.952;2023-04-01T09:56:08;4.00;;;3.30;;
78614;SDS011;67937;52.488;20.952;2023-04-01T10:07:05;4.10;;;3.20;;
78614;SDS011;67937;52.488;20.952;2023-04-01T10:13:01;3.30;;;2.90;;
78614;SDS011;67937;52.488;20.952;2023-04-01T10:15:40;3.40;;;2.00;;
78614;SDS011;67937;52.488;20.952;2023-04-01T10:21:28;4.50;;;3.40;;
78614;SDS011;67937;52.488;20.952;2023-04-01T11:27:21;2.10;;;1.60;;
78614;SDS011;67937;52.488;20.952;2023-04-01T11:33:17;1.90;;;1.80;;
78614;SDS011;67937;52.488;20.952;2023-04-01T11:44:11;2.10;;;1.90;;
78614;SDS011;67937;52.488;20.952;2023-04-01T11:50:30;1.60;;;1.50;;
78614;SDS011;67937;52.488;20.952;2023-04-01T11:53:13;2.80;;;1.70;;
78614;SDS011;67937;52.488;20.952;2023-04-01T11:55:58;16.20;;;7.10;;
78614;SDS011;67937;52.488;20.952;2023-04-01T12:01:33;18.60;;;8.80;;
78614;SDS011;67937;52.488;20.952;2023-04-01T12:18:02;18.20;;;8.30;;
78614;SDS011;67937;52.488;20.952;2023-04-01T12:20:57;28.00;;;11.70;;
78614;SDS011;67937;52.488;20.952;2023-04-01T12:24:10;13.70;;;6.40;;
78614;SDS011;67937;52.488;20.952;2023-04-01T12:32:17;53.50;;;19.30;;
78614;SDS011;67937;52.488;20.952;2023-04-01T12:46:05;59.10;;;18.80;;
78614;SDS011;67937;52.488;20.952;2023-04-01T12:59:55;1.70;;;1.60;;
78614;SDS011;67937;52.488;20.952;2023-04-01T13:16:38;2.30;;;1.60;;
78614;SDS011;67937;52.488;20.952;2023-04-01T13:19:11;1.60;;;1.50;;
78614;SDS011;67937;52.488;20.952;2023-04-01T13:28:50;1.30;;;1.20;;
78614;SDS011;67937;52.488;20.952;2023-04-01T13:31:23;1.80;;;1.50;;
78614;SDS011;67937;52.488;20.952;2023-04-01T13:36:54;2.00;;;1.60;;
78614;SDS011;67937;52.488;20.952;2023-04-01T13:42:28;1.80;;;1.60;;
78614;SDS011;67937;52.488;20.952;2023-04-01T14:10:13;2.90;;;2.30;;
78614;SDS011;67937;52.488;20.952;2023-04-01T14:33:40;1.90;;;1.70;;
78614;SDS011;67937;52.488;20.952;2023-04-01T14:36:23;1.80;;;1.70;;
78614;SDS011;67937;52.488;20.952;2023-04-01T14:50:25;1.80;;;1.70;;
78614;SDS011;67937;52.488;20.952;2023-04-01T14:53:11;4.30;;;2.80;;
78614;SDS011;67937;52.488;20.952;2023-04-01T14:55:53;1.80;;;1.70;;
78614;SDS011;67937;52.488;20.952;2023-04-01T14:58:44;2.30;;;1.90;;
78614;SDS011;67937;52.488;20.952;2023-04-01T15:06:40;3.80;;;2.60;;
78614;SDS011;67937;52.488;20.952;2023-04-01T15:14:21;2.40;;;1.80;;
78614;SDS011;67937;52.488;20.952;2023-04-01T15:17:02;2.90;;;1.80;;
78614;SDS011;67937;52.488;20.952;2023-04-01T15:22:43;1.50;;;1.40;;
78614;SDS011;67937;52.488;20.952;2023-04-01T15:39:10;1.80;;;1.70;;
78614;SDS011;67937;52.488;20.952;2023-04-01T15:50:21;1.60;;;1.50;;
78614;SDS011;67937;52.488;20.952;2023-04-01T15:56:19;3.00;;;1.70;;
78614;SDS011;67937;52.488;20.952;2023-04-01T16:15:24;3.10;;;2.60;;
78614;SDS011;67937;52.488;20.952;2023-04-01T16:26:25;4.80;;;3.80;;
78614;SDS011;67937;52.488;20.952;2023-04-01T16:31:43;3.90;;;3.00;;
78614;SDS011;67937;52.488;20.952;2023-04-01T16:34:38;5.10;;;3.90;;
78614;SDS011;67937;52.488;20.952;2023-04-01T16:37:38;5.90;;;3.20;;
78614;SDS011;67937;52.488;20.952;2023-04-01T16:43:19;5.80;;;3.90;;
78614;SDS011;67937;52.488;20.952;2023-04-01T16:48:34;14.00;;;4.50;;
78614;SDS011;67937;52.488;20.952;2023-04-01T16:51:13;10.20;;;4.60;;
78614;SDS011;67937;52.488;20.952;2023-04-01T16:53:45;10.00;;;4.90;;
78614;SDS011;67937;52.488;20.952;2023-04-01T16:56:20;6.60;;;4.00;;
78614;SDS011;67937;52.488;20.952;2023-04-01T17:01:47;10.90;;;4.50;;
78614;SDS011;67937;52.488;20.952;2023-04-01T17:18:55;6.80;;;4.50;;
78614;SDS011;67937;52.488;20.952;2023-04-01T17:27:05;8.20;;;4.10;;
78614;SDS011;67937;52.488;20.952;2023-04-01T17:29:59;7.60;;;4.60;;
78614;SDS011;67937;52.488;20.952;2023-04-01T17:32:42;8.30;;;4.60;;
78614;SDS011;67937;52.488;20.952;2023-04-01T17:35:19;7.40;;;4.80;;
78614;SDS011;67937;52.488;20.952;2023-04-01T17:41:03;14.50;;;6.00;;
78614;SDS011;67937;52.488;20.952;2023-04-01T17:47:06;11.50;;;6.00;;
78614;SDS011;67937;52.488;20.952;2023-04-01T18:12:20;10.10;;;6.30;;
78614;SDS011;67937;52.488;20.952;2023-04-01T18:17:42;7.10;;;5.70;;
78614;SDS011;67937;52.488;20.952;2023-04-01T18:20:31;7.30;;;5.60;;
78614;SDS011;67937;52.488;20.952;2023-04-01T18:26:22;6.80;;;4.40;;
78614;SDS011;67937;52.488;20.952;2023-04-01T18:38:00;6.50;;;4.60;;
78614;SDS011;67937;52.488;20.952;2023-04-01T18:43:59;5.60;;;3.90;;
78614;SDS011;67937;52.488;20.952;2023-04-01T18:46:59;5.30;;;4.70;;
78614;SDS011;67937;52.488;20.952;2023-04-01T18:52:51;10.10;;;5.50;;
78614;SDS011;67937;52.488;20.952;2023-04-01T18:55:33;8.40;;;5.60;;
78614;SDS011;67937;52.488;20.952;2023-04-01T19:01:11;4.80;;;3.80;;
78614;SDS011;67937;52.488;20.952;2023-04-01T19:03:43;5.60;;;4.40;;
78614;SDS011;67937;52.488;20.952;2023-04-01T19:12:13;4.30;;;3.40;;
78614;SDS011;67937;52.488;20.952;2023-04-01T19:17:32;4.00;;;3.40;;
78614;SDS011;67937;52.488;20.952;2023-04-01T19:20:08;5.00;;;3.40;;
78614;SDS011;67937;52.488;20.952;2023-04-01T19:36:29;3.90;;;3.10;;
78614;SDS011;67937;52.488;20.952;2023-04-01T19:42:12;3.20;;;2.90;;
78614;SDS011;67937;52.488;20.952;2023-04-01T19:50:27;3.30;;;2.80;;
78614;SDS011;67937;52.488;20.952;2023-04-01T19:53:11;3.60;;;3.30;;
78614;SDS011;67937;52.488;20.952;2023-04-01T19:55:49;5.20;;;3.30;;
78614;SDS011;67937;52.488;20.952;2023-04-01T20:04:08;4.70;;;3.10;;
78614;SDS011;67937;52.488;20.952;2023-04-01T20:07:15;3.00;;;2.70;;
78614;SDS011;67937;52.488;20.952;2023-04-01T20:09:58;3.40;;;3.00;;
78614;SDS011;67937;52.488;20.952;2023-04-01T20:18:15;3.60;;;2.80;;
78614;SDS011;67937;52.488;20.952;2023-04-01T20:21:00;3.00;;;2.60;;
78614;SDS011;67937;52.488;20.952;2023-04-01T20:23:40;4.50;;;2.80;;
78614;SDS011;67937;52.488;20.952;2023-04-01T20:26:12;3.30;;;2.70;;
78614;SDS011;67937;52.488;20.952;2023-04-01T20:28:47;4.60;;;2.90;;
78614;SDS011;67937;52.488;20.952;2023-04-01T20:31:41;3.80;;;3.00;;
78614;SDS011;67937;52.488;20.952;2023-04-01T20:34:17;4.60;;;3.20;;
78614;SDS011;67937;52.488;20.952;2023-04-01T20:37:02;3.00;;;2.60;;
78614;SDS011;67937;52.488;20.952;2023-04-01T20:45:26;2.40;;;2.10;;
78614;SDS011;67937;52.488;20.952;2023-04-01T20:59:38;3.70;;;2.90;;
78614;SDS011;67937;52.488;20.952;2023-04-01T21:02:16;7.70;;;2.80;;
78614;SDS011;67937;52.488;20.952;2023-04-01T21:07:39;3.80;;;2.90;;
78614;SDS011;67937;52.488;20.952;2023-04-01T21:15:32;4.10;;;3.00;;
78614;SDS011;67937;52.488;20.952;2023-04-01T21:23:58;3.40;;;2.90;;
78614;SDS011;67937;52.488;20.952;2023-04-01T21:48:52;4.50;;;3.20;;
78614;SDS011;67937;52.488;20.952;2023-04-01T22:02:35;3.50;;;3.00;;
78614;SDS011;67937;52.488;20.952;2023-04-01T22:07:58;6.80;;;3.90;;
78614;SDS011;67937;52.488;20.952;2023-04-01T22:10:50;4.10;;;3.40;;
78614;SDS011;67937;52.488;20.952;2023-04-01T22:13:44;4.80;;;3.20;;
78614;SDS011;67937;52.488;20.952;2023-04-01T22:16:26;5.90;;;3.60;;
78614;SDS011;67937;52.488;20.952;2023-04-01T22:19:08;5.10;;;2.90;;
78614;SDS011;67937;52.488;20.952;2023-04-01T22:32:44;4.70;;;3.00;;
78614;SDS011;67937;52.488;20.952;2023-04-01T22:43:08;4.60;;;3.10;;
78614;SDS011;67937;52.488;20.952;2023-04-01T22:45:50;3.90;;;3.10;;
78614;SDS011;67937;52.488;20.952;2023-04-01T22:48:42;6.20;;;3.60;;
78614;SDS011;67937;52.488;20.952;2023-04-01T22:54:34;5.40;;;3.30;;
78614;SDS011;67937;52.488;20.952;2023-04-01T22:56:56;5.30;;;3.50;;
78614;SDS011;67937;52.488;20.952;2023-04-01T22:59:43;5.80;;;3.80;;
78614;SDS011;67937;52.488;20.952;2023-04-01T23:02:14;6.30;;;4.30;;
78614;SDS011;67937;52.488;20.952;2023-04-01T23:04:48;6.30;;;3.90;;
78614;SDS011;67937;52.488;20.952;2023-04-01T23:13:10;5.00;;;3.80;;
78614;SDS011;67937;52.488;20.952;2023-04-01T23:15:43;5.20;;;3.50;;
78614;SDS011;67937;52.488;20.952;2023-04-01T23:18:23;7.30;;;3.50;;
78614;SDS011;67937;52.488;20.952;2023-04-01T23:29:13;6.30;;;3.70;;
78614;SDS011;67937;52.488;20.952;2023-04-01T23:31:47;7.80;;;4.40;;
78614;SDS011;67937;52.488;20.952;2023-04-01T23:34:25;6.10;;;4.80;;
78614;SDS011;67937;52.488;20.952;2023-04-01T23:36:58;6.60;;;4.00;;
78614;SDS011;67937;52.488;20.952;2023-04-01T23:39:31;8.50;;;4.50;;
78614;SDS011;67937;52.488;20.952;2023-04-01T23:42:06;6.30;;;3.50;;
78614;SDS011;67937;52.488;20.952;2023-04-01T23:44:41;7.00;;;4.00;;
78614;SDS011;67937;52.488;20.952;2023-04-01T23:47:12;5.20;;;3.70;;
78614;SDS011;67937;52.488;20.952;2023-04-01T23:49:53;5.20;;;3.60;;
78614;SDS011;67937;52.488;20.952;2023-04-01T23:52:29;5.10;;;3.80;;
